sensor_id;sensor_type;location;lat;lon;timestamp;temperature;humidity
46754;DHT22;32500;50.620;3.400;2023-04-04T00:01:24;13.50;67.70
46754;DHT22;32500;50.620;3.400;2023-04-04T00:03:50;13.50;68.10
46754;DHT22;32500;50.620;3.400;2023-04-04T00:06:19;13.50;67.90
46754;DHT22;32500;50.620;3.400;2023-04-04T00:08:45;13.40;68.00
46754;DHT22;32500;50.620;3.400;2023-04-04T00:11:11;13.40;67.80
46754;DHT22;32500;50.620;3.400;2023-04-04T00:13:38;13.50;67.80
46754;DHT22;32500;50.620;3.400;2023-04-04T00:16:04;13.50;67.80
46754;DHT22;32500;50.620;3.400;2023-04-04T00:18:29;13.50;67.70
46754;DHT22;32500;50.620;3.400;2023-04-04T00:20:55;13.40;67.60
46754;DHT22;32500;50.620;3.400;2023-04-04T00:23:21;13.40;67.60
46754;DHT22;32500;50.620;3.400;2023-04-04T00:25:50;13.40;67.80
46754;DHT22;32500;50.620;3.400;2023-04-04T00:28:19;13.30;67.80
46754;DHT22;32500;50.620;3.400;2023-04-04T00:30:45;13.40;67.90
46754;DHT22;32500;50.620;3.400;2023-04-04T00:33:11;13.30;67.90
46754;DHT22;32500;50.620;3.400;2023-04-04T00:35:37;13.30;67.80
46754;DHT22;32500;50.620;3.400;2023-04-04T00:38:02;13.40;67.60
46754;DHT22;32500;50.620;3.400;2023-04-04T00:40:28;13.40;67.60
46754;DHT22;32500;50.620;3.400;2023-04-04T00:42:53;13.30;67.40
46754;DHT22;32500;50.620;3.400;2023-04-04T00:45:19;13.30;67.60
46754;DHT22;32500;50.620;3.400;2023-04-04T00:47:45;13.30;67.70
46754;DHT22;32500;50.620;3.400;2023-04-04T00:50:11;13.30;67.70
46754;DHT22;32500;50.620;3.400;2023-04-04T00:52:36;13.20;67.50
46754;DHT22;32500;50.620;3.400;2023-04-04T00:55:02;13.30;67.70
46754;DHT22;32500;50.620;3.400;2023-04-04T00:57:28;13.30;67.60
46754;DHT22;32500;50.620;3.400;2023-04-04T00:59:55;13.20;67.60
46754;DHT22;32500;50.620;3.400;2023-04-04T01:02:22;13.20;67.40
46754;DHT22;32500;50.620;3.400;2023-04-04T01:04:48;13.20;67.50
46754;DHT22;32500;50.620;3.400;2023-04-04T01:07:13;13.20;67.40
46754;DHT22;32500;50.620;3.400;2023-04-04T01:09:39;13.20;67.30
46754;DHT22;32500;50.620;3.400;2023-04-04T01:12:05;13.20;67.50
46754;DHT22;32500;50.620;3.400;2023-04-04T01:14:31;13.20;67.50
46754;DHT22;32500;50.620;3.400;2023-04-04T01:16:57;13.20;67.20
46754;DHT22;32500;50.620;3.400;2023-04-04T01:19:27;13.20;67.40
46754;DHT22;32500;50.620;3.400;2023-04-04T01:21:54;13.10;67.50
46754;DHT22;32500;50.620;3.400;2023-04-04T01:24:21;13.10;67.50
46754;DHT22;32500;50.620;3.400;2023-04-04T01:26:48;13.10;67.50
46754;DHT22;32500;50.620;3.400;2023-04-04T01:29:14;13.10;67.50
46754;DHT22;32500;50.620;3.400;2023-04-04T01:31:47;13.10;67.30
46754;DHT22;32500;50.620;3.400;2023-04-04T01:34:25;13.10;67.90
46754;DHT22;32500;50.620;3.400;2023-04-04T01:36:56;13.10;67.30
46754;DHT22;32500;50.620;3.400;2023-04-04T01:39:27;13.00;67.30
46754;DHT22;32500;50.620;3.400;2023-04-04T01:41:55;13.00;67.30
46754;DHT22;32500;50.620;3.400;2023-04-04T01:44:21;13.00;67.40
46754;DHT22;32500;50.620;3.400;2023-04-04T01:46:51;13.00;67.30
46754;DHT22;32500;50.620;3.400;2023-04-04T01:49:16;13.00;67.10
46754;DHT22;32500;50.620;3.400;2023-04-04T01:51:43;13.00;67.40
46754;DHT22;32500;50.620;3.400;2023-04-04T01:54:09;13.00;67.20
46754;DHT22;32500;50.620;3.400;2023-04-04T01:56:34;13.00;67.10
46754;DHT22;32500;50.620;3.400;2023-04-04T01:59:00;13.00;67.30
46754;DHT22;32500;50.620;3.400;2023-04-04T02:01:25;13.00;67.20
46754;DHT22;32500;50.620;3.400;2023-04-04T02:03:51;13.00;67.10
46754;DHT22;32500;50.620;3.400;2023-04-04T02:06:17;12.90;67.20
46754;DHT22;32500;50.620;3.400;2023-04-04T02:08:42;12.90;67.30
46754;DHT22;32500;50.620;3.400;2023-04-04T02:11:07;12.90;67.20
46754;DHT22;32500;50.620;3.400;2023-04-04T02:13:33;12.90;67.20
46754;DHT22;32500;50.620;3.400;2023-04-04T02:15:59;12.90;67.00
46754;DHT22;32500;50.620;3.400;2023-04-04T02:18:25;12.90;67.00
46754;DHT22;32500;50.620;3.400;2023-04-04T02:20:54;12.90;66.70
46754;DHT22;32500;50.620;3.400;2023-04-04T02:23:20;12.90;67.00
46754;DHT22;32500;50.620;3.400;2023-04-04T02:25:45;12.80;67.00
46754;DHT22;32500;50.620;3.400;2023-04-04T02:28:14;12.80;67.00
46754;DHT22;32500;50.620;3.400;2023-04-04T02:30:39;12.80;66.80
46754;DHT22;32500;50.620;3.400;2023-04-04T02:33:05;12.80;67.00
46754;DHT22;32500;50.620;3.400;2023-04-04T02:35:30;12.80;67.10
46754;DHT22;32500;50.620;3.400;2023-04-04T02:37:56;12.80;66.80
46754;DHT22;32500;50.620;3.400;2023-04-04T02:40:21;12.80;66.80
46754;DHT22;32500;50.620;3.400;2023-04-04T02:42:47;12.80;66.70
46754;DHT22;32500;50.620;3.400;2023-04-04T02:45:12;12.70;66.60
46754;DHT22;32500;50.620;3.400;2023-04-04T02:47:39;12.80;66.80
46754;DHT22;32500;50.620;3.400;2023-04-04T02:50:05;12.80;66.50
46754;DHT22;32500;50.620;3.400;2023-04-04T02:52:30;12.80;66.50
46754;DHT22;32500;50.620;3.400;2023-04-04T02:54:57;12.70;66.60
46754;DHT22;32500;50.620;3.400;2023-04-04T02:57:22;12.70;66.70
46754;DHT22;32500;50.620;3.400;2023-04-04T02:59:48;12.70;66.70
46754;DHT22;32500;50.620;3.400;2023-04-04T03:02:13;12.70;66.50
46754;DHT22;32500;50.620;3.400;2023-04-04T03:04:39;12.70;66.60
46754;DHT22;32500;50.620;3.400;2023-04-04T03:07:04;12.70;66.50
46754;DHT22;32500;50.620;3.400;2023-04-04T03:09:30;12.70;66.40
46754;DHT22;32500;50.620;3.400;2023-04-04T03:11:56;12.60;66.40
46754;DHT22;32500;50.620;3.400;2023-04-04T03:14:21;12.60;66.50
46754;DHT22;32500;50.620;3.400;2023-04-04T03:16:47;12.60;66.30
46754;DHT22;32500;50.620;3.400;2023-04-04T03:19:14;12.60;66.30
46754;DHT22;32500;50.620;3.400;2023-04-04T03:21:40;12.60;66.30
46754;DHT22;32500;50.620;3.400;2023-04-04T03:24:05;12.60;66.30
46754;DHT22;32500;50.620;3.400;2023-04-04T03:26:31;12.60;66.60
46754;DHT22;32500;50.620;3.400;2023-04-04T03:28:56;12.50;66.60
46754;DHT22;32500;50.620;3.400;2023-04-04T03:31:22;12.60;66.30
46754;DHT22;32500;50.620;3.400;2023-04-04T03:33:48;12.60;66.30
46754;DHT22;32500;50.620;3.400;2023-04-04T03:36:13;12.60;66.30
46754;DHT22;32500;50.620;3.400;2023-04-04T03:38:39;12.50;66.30
46754;DHT22;32500;50.620;3.400;2023-04-04T03:41:04;12.50;66.20
46754;DHT22;32500;50.620;3.400;2023-04-04T03:43:30;12.60;66.30
46754;DHT22;32500;50.620;3.400;2023-04-04T03:46:00;12.50;66.10
46754;DHT22;32500;50.620;3.400;2023-04-04T03:48:26;12.50;66.30
46754;DHT22;32500;50.620;3.400;2023-04-04T03:50:51;12.50;66.10
46754;DHT22;32500;50.620;3.400;2023-04-04T03:53:17;12.50;66.20
46754;DHT22;32500;50.620;3.400;2023-04-04T03:55:42;12.50;66.10
46754;DHT22;32500;50.620;3.400;2023-04-04T03:58:08;12.50;66.10
46754;DHT22;32500;50.620;3.400;2023-04-04T04:00:33;12.50;66.00
46754;DHT22;32500;50.620;3.400;2023-04-04T04:02:59;12.40;66.00
46754;DHT22;32500;50.620;3.400;2023-04-04T04:05:25;12.40;66.00
46754;DHT22;32500;50.620;3.400;2023-04-04T04:07:50;12.50;66.20
46754;DHT22;32500;50.620;3.400;2023-04-04T04:10:17;12.50;65.80
46754;DHT22;32500;50.620;3.400;2023-04-04T04:12:42;12.50;65.90
46754;DHT22;32500;50.620;3.400;2023-04-04T04:15:08;12.40;66.20
46754;DHT22;32500;50.620;3.400;2023-04-04T04:17:37;12.40;66.00
46754;DHT22;32500;50.620;3.400;2023-04-04T04:20:02;12.40;66.00
46754;DHT22;32500;50.620;3.400;2023-04-04T04:22:28;12.40;66.40
46754;DHT22;32500;50.620;3.400;2023-04-04T04:24:54;12.40;66.40
46754;DHT22;32500;50.620;3.400;2023-04-04T04:27:20;12.50;66.50
46754;DHT22;32500;50.620;3.400;2023-04-04T04:29:45;12.40;66.50
46754;DHT22;32500;50.620;3.400;2023-04-04T04:32:14;12.30;66.40
46754;DHT22;32500;50.620;3.400;2023-04-04T04:34:39;12.40;66.70
46754;DHT22;32500;50.620;3.400;2023-04-04T04:37:05;12.40;66.50
46754;DHT22;32500;50.620;3.400;2023-04-04T04:39:30;12.40;66.20
46754;DHT22;32500;50.620;3.400;2023-04-04T04:41:56;12.30;66.40
46754;DHT22;32500;50.620;3.400;2023-04-04T04:44:21;12.40;66.20
46754;DHT22;32500;50.620;3.400;2023-04-04T04:46:47;12.40;66.30
46754;DHT22;32500;50.620;3.400;2023-04-04T04:49:12;12.30;66.20
46754;DHT22;32500;50.620;3.400;2023-04-04T04:51:38;12.30;66.40
46754;DHT22;32500;50.620;3.400;2023-04-04T04:54:04;12.30;66.40
46754;DHT22;32500;50.620;3.400;2023-04-04T04:56:30;12.30;66.20
46754;DHT22;32500;50.620;3.400;2023-04-04T04:58:56;12.30;65.90
46754;DHT22;32500;50.620;3.400;2023-04-04T05:01:21;12.30;66.00
46754;DHT22;32500;50.620;3.400;2023-04-04T05:03:47;12.20;66.20
46754;DHT22;32500;50.620;3.400;2023-04-04T05:06:12;12.30;66.10
46754;DHT22;32500;50.620;3.400;2023-04-04T05:08:38;12.30;66.40
46754;DHT22;32500;50.620;3.400;2023-04-04T05:11:03;12.30;66.20
46754;DHT22;32500;50.620;3.400;2023-04-04T05:13:29;12.30;66.50
46754;DHT22;32500;50.620;3.400;2023-04-04T05:15:55;12.20;66.50
46754;DHT22;32500;50.620;3.400;2023-04-04T05:18:20;12.30;66.40
46754;DHT22;32500;50.620;3.400;2023-04-04T05:20:49;12.20;66.40
46754;DHT22;32500;50.620;3.400;2023-04-04T05:23:15;12.30;67.00
46754;DHT22;32500;50.620;3.400;2023-04-04T05:25:41;12.30;67.10
46754;DHT22;32500;50.620;3.400;2023-04-04T05:28:06;12.20;67.50
46754;DHT22;32500;50.620;3.400;2023-04-04T05:30:32;12.20;67.50
46754;DHT22;32500;50.620;3.400;2023-04-04T05:32:58;12.20;67.20
46754;DHT22;32500;50.620;3.400;2023-04-04T05:35:23;12.30;67.00
46754;DHT22;32500;50.620;3.400;2023-04-04T05:37:50;12.30;66.70
46754;DHT22;32500;50.620;3.400;2023-04-04T05:40:15;12.30;67.60
46754;DHT22;32500;50.620;3.400;2023-04-04T05:42:41;12.30;67.10
46754;DHT22;32500;50.620;3.400;2023-04-04T05:45:07;12.30;67.90
46754;DHT22;32500;50.620;3.400;2023-04-04T05:47:32;12.30;67.80
46754;DHT22;32500;50.620;3.400;2023-04-04T05:49:58;12.20;68.40
46754;DHT22;32500;50.620;3.400;2023-04-04T05:52:23;12.20;69.60
46754;DHT22;32500;50.620;3.400;2023-04-04T05:54:49;12.20;69.90
46754;DHT22;32500;50.620;3.400;2023-04-04T05:57:15;12.30;69.10
46754;DHT22;32500;50.620;3.400;2023-04-04T05:59:41;12.30;68.50
46754;DHT22;32500;50.620;3.400;2023-04-04T06:02:06;12.30;68.20
46754;DHT22;32500;50.620;3.400;2023-04-04T06:04:32;12.20;68.10
46754;DHT22;32500;50.620;3.400;2023-04-04T06:06:58;12.20;68.00
46754;DHT22;32500;50.620;3.400;2023-04-04T06:09:23;12.20;67.90
46754;DHT22;32500;50.620;3.400;2023-04-04T06:11:49;12.20;67.60
46754;DHT22;32500;50.620;3.400;2023-04-04T06:14:14;12.30;67.50
46754;DHT22;32500;50.620;3.400;2023-04-04T06:16:40;12.20;67.50
46754;DHT22;32500;50.620;3.400;2023-04-04T06:19:06;12.20;67.30
46754;DHT22;32500;50.620;3.400;2023-04-04T06:21:31;12.20;67.10
46754;DHT22;32500;50.620;3.400;2023-04-04T06:23:57;12.20;67.00
46754;DHT22;32500;50.620;3.400;2023-04-04T06:26:22;12.30;66.80
46754;DHT22;32500;50.620;3.400;2023-04-04T06:28:48;12.20;66.70
46754;DHT22;32500;50.620;3.400;2023-04-04T06:31:14;12.30;66.40
46754;DHT22;32500;50.620;3.400;2023-04-04T06:33:39;12.20;66.60
46754;DHT22;32500;50.620;3.400;2023-04-04T06:36:05;12.20;66.60
46754;DHT22;32500;50.620;3.400;2023-04-04T06:38:31;12.20;66.60
46754;DHT22;32500;50.620;3.400;2023-04-04T06:40:57;12.20;66.50
46754;DHT22;32500;50.620;3.400;2023-04-04T06:43:23;12.30;66.40
46754;DHT22;32500;50.620;3.400;2023-04-04T06:45:49;12.30;66.20
46754;DHT22;32500;50.620;3.400;2023-04-04T06:48:14;12.30;66.10
46754;DHT22;32500;50.620;3.400;2023-04-04T06:50:40;12.40;66.00
46754;DHT22;32500;50.620;3.400;2023-04-04T06:53:05;12.40;66.10
46754;DHT22;32500;50.620;3.400;2023-04-04T06:55:34;12.40;65.90
46754;DHT22;32500;50.620;3.400;2023-04-04T06:58:00;12.30;65.90
46754;DHT22;32500;50.620;3.400;2023-04-04T07:00:25;12.40;65.80
46754;DHT22;32500;50.620;3.400;2023-04-04T07:02:57;12.40;65.90
46754;DHT22;32500;50.620;3.400;2023-04-04T07:05:23;12.40;65.60
46754;DHT22;32500;50.620;3.400;2023-04-04T07:07:52;12.40;65.60
46754;DHT22;32500;50.620;3.400;2023-04-04T07:10:19;12.40;65.40
46754;DHT22;32500;50.620;3.400;2023-04-04T07:12:45;12.40;65.30
46754;DHT22;32500;50.620;3.400;2023-04-04T07:15:10;12.40;65.30
46754;DHT22;32500;50.620;3.400;2023-04-04T07:17:37;12.40;65.10
46754;DHT22;32500;50.620;3.400;2023-04-04T07:20:04;12.40;65.20
46754;DHT22;32500;50.620;3.400;2023-04-04T07:22:29;12.40;65.10
46754;DHT22;32500;50.620;3.400;2023-04-04T07:24:55;12.40;65.10
46754;DHT22;32500;50.620;3.400;2023-04-04T07:27:21;12.40;65.10
46754;DHT22;32500;50.620;3.400;2023-04-04T07:29:46;12.40;65.00
46754;DHT22;32500;50.620;3.400;2023-04-04T07:32:12;12.50;64.90
46754;DHT22;32500;50.620;3.400;2023-04-04T07:34:37;12.50;64.80
46754;DHT22;32500;50.620;3.400;2023-04-04T07:37:03;12.50;64.20
46754;DHT22;32500;50.620;3.400;2023-04-04T07:39:28;12.50;64.60
46754;DHT22;32500;50.620;3.400;2023-04-04T07:41:54;12.50;64.60
46754;DHT22;32500;50.620;3.400;2023-04-04T07:44:19;12.60;64.40
46754;DHT22;32500;50.620;3.400;2023-04-04T07:46:45;12.50;64.30
46754;DHT22;32500;50.620;3.400;2023-04-04T07:49:10;12.60;64.20
46754;DHT22;32500;50.620;3.400;2023-04-04T07:51:37;12.60;64.00
46754;DHT22;32500;50.620;3.400;2023-04-04T07:54:04;12.60;64.00
46754;DHT22;32500;50.620;3.400;2023-04-04T07:56:29;12.60;64.10
46754;DHT22;32500;50.620;3.400;2023-04-04T07:58:55;12.60;64.10
46754;DHT22;32500;50.620;3.400;2023-04-04T08:01:20;12.70;64.20
46754;DHT22;32500;50.620;3.400;2023-04-04T08:03:46;12.60;64.10
46754;DHT22;32500;50.620;3.400;2023-04-04T08:06:11;12.70;64.00
46754;DHT22;32500;50.620;3.400;2023-04-04T08:08:37;12.70;64.10
46754;DHT22;32500;50.620;3.400;2023-04-04T08:11:03;12.70;64.00
46754;DHT22;32500;50.620;3.400;2023-04-04T08:13:28;12.70;64.20
46754;DHT22;32500;50.620;3.400;2023-04-04T08:15:54;12.70;64.20
46754;DHT22;32500;50.620;3.400;2023-04-04T08:18:19;12.80;64.20
46754;DHT22;32500;50.620;3.400;2023-04-04T08:20:45;12.80;64.10
46754;DHT22;32500;50.620;3.400;2023-04-04T08:23:11;12.80;64.10
46754;DHT22;32500;50.620;3.400;2023-04-04T08:25:37;12.70;64.00
46754;DHT22;32500;50.620;3.400;2023-04-04T08:28:03;12.80;64.10
46754;DHT22;32500;50.620;3.400;2023-04-04T08:30:29;12.80;64.10
46754;DHT22;32500;50.620;3.400;2023-04-04T08:32:55;12.90;64.00
46754;DHT22;32500;50.620;3.400;2023-04-04T08:35:20;12.80;64.20
46754;DHT22;32500;50.620;3.400;2023-04-04T08:37:46;12.80;64.20
46754;DHT22;32500;50.620;3.400;2023-04-04T08:40:12;12.80;64.20
46754;DHT22;32500;50.620;3.400;2023-04-04T08:42:39;12.80;64.30
46754;DHT22;32500;50.620;3.400;2023-04-04T08:45:05;12.80;64.20
46754;DHT22;32500;50.620;3.400;2023-04-04T08:47:32;12.80;64.30
46754;DHT22;32500;50.620;3.400;2023-04-04T08:49:59;12.80;64.30
46754;DHT22;32500;50.620;3.400;2023-04-04T08:52:27;12.90;64.30
46754;DHT22;32500;50.620;3.400;2023-04-04T08:54:53;12.90;64.10
46754;DHT22;32500;50.620;3.400;2023-04-04T08:57:19;13.00;64.00
46754;DHT22;32500;50.620;3.400;2023-04-04T08:59:45;13.00;63.90
46754;DHT22;32500;50.620;3.400;2023-04-04T09:04:46;13.00;63.90
46754;DHT22;32500;50.620;3.400;2023-04-04T09:07:13;13.00;64.00
46754;DHT22;32500;50.620;3.400;2023-04-04T09:09:41;13.10;64.10
46754;DHT22;32500;50.620;3.400;2023-04-04T09:12:08;13.10;63.80
46754;DHT22;32500;50.620;3.400;2023-04-04T09:14:34;13.10;63.80
46754;DHT22;32500;50.620;3.400;2023-04-04T09:17:01;13.10;63.80
46754;DHT22;32500;50.620;3.400;2023-04-04T09:19:27;13.20;63.70
46754;DHT22;32500;50.620;3.400;2023-04-04T09:21:53;13.10;63.80
46754;DHT22;32500;50.620;3.400;2023-04-04T09:24:18;13.10;63.90
46754;DHT22;32500;50.620;3.400;2023-04-04T09:26:48;13.20;63.90
46754;DHT22;32500;50.620;3.400;2023-04-04T09:29:18;13.20;63.70
46754;DHT22;32500;50.620;3.400;2023-04-04T09:31:44;13.30;64.00
46754;DHT22;32500;50.620;3.400;2023-04-04T09:34:19;13.30;63.80
46754;DHT22;32500;50.620;3.400;2023-04-04T09:36:45;13.30;63.80
46754;DHT22;32500;50.620;3.400;2023-04-04T09:39:11;13.30;63.80
46754;DHT22;32500;50.620;3.400;2023-04-04T09:41:37;13.40;63.80
46754;DHT22;32500;50.620;3.400;2023-04-04T09:44:04;13.30;63.50
46754;DHT22;32500;50.620;3.400;2023-04-04T09:46:32;13.40;63.90
46754;DHT22;32500;50.620;3.400;2023-04-04T09:48:57;13.40;63.80
46754;DHT22;32500;50.620;3.400;2023-04-04T09:51:24;13.50;63.90
46754;DHT22;32500;50.620;3.400;2023-04-04T09:53:57;13.40;63.60
46754;DHT22;32500;50.620;3.400;2023-04-04T09:56:23;13.50;63.70
46754;DHT22;32500;50.620;3.400;2023-04-04T09:58:48;13.50;63.80
46754;DHT22;32500;50.620;3.400;2023-04-04T10:01:14;13.50;63.50
46754;DHT22;32500;50.620;3.400;2023-04-04T10:03:39;13.60;63.70
46754;DHT22;32500;50.620;3.400;2023-04-04T10:06:05;13.60;63.70
46754;DHT22;32500;50.620;3.400;2023-04-04T10:08:31;13.60;63.60
46754;DHT22;32500;50.620;3.400;2023-04-04T10:15:50;13.60;63.80
46754;DHT22;32500;50.620;3.400;2023-04-04T10:18:16;13.60;63.20
46754;DHT22;32500;50.620;3.400;2023-04-04T10:20:42;13.70;63.50
46754;DHT22;32500;50.620;3.400;2023-04-04T10:23:08;13.80;63.50
46754;DHT22;32500;50.620;3.400;2023-04-04T10:25:33;13.70;63.40
46754;DHT22;32500;50.620;3.400;2023-04-04T10:28:01;13.80;63.40
46754;DHT22;32500;50.620;3.400;2023-04-04T10:30:26;13.80;63.20
46754;DHT22;32500;50.620;3.400;2023-04-04T10:32:55;13.90;63.20
46754;DHT22;32500;50.620;3.400;2023-04-04T10:35:22;13.90;63.20
46754;DHT22;32500;50.620;3.400;2023-04-04T10:37:50;13.90;63.10
46754;DHT22;32500;50.620;3.400;2023-04-04T10:40:17;13.90;63.20
46754;DHT22;32500;50.620;3.400;2023-04-04T10:42:44;13.90;63.10
46754;DHT22;32500;50.620;3.400;2023-04-04T10:45:12;14.00;63.30
46754;DHT22;32500;50.620;3.400;2023-04-04T10:47:38;14.00;63.10
46754;DHT22;32500;50.620;3.400;2023-04-04T10:50:04;14.00;63.00
46754;DHT22;32500;50.620;3.400;2023-04-04T10:52:31;14.10;63.10
46754;DHT22;32500;50.620;3.400;2023-04-04T10:54:58;14.00;62.90
46754;DHT22;32500;50.620;3.400;2023-04-04T10:57:26;14.00;62.90
46754;DHT22;32500;50.620;3.400;2023-04-04T11:00:06;14.10;63.10
46754;DHT22;32500;50.620;3.400;2023-04-04T11:02:42;14.10;63.00
46754;DHT22;32500;50.620;3.400;2023-04-04T11:05:14;14.10;62.80
46754;DHT22;32500;50.620;3.400;2023-04-04T11:07:43;14.10;62.90
46754;DHT22;32500;50.620;3.400;2023-04-04T11:10:19;14.20;62.70
46754;DHT22;32500;50.620;3.400;2023-04-04T11:12:45;14.20;62.80
46754;DHT22;32500;50.620;3.400;2023-04-04T11:15:12;14.30;62.90
46754;DHT22;32500;50.620;3.400;2023-04-04T11:20:19;14.20;62.60
46754;DHT22;32500;50.620;3.400;2023-04-04T11:22:47;14.30;62.70
46754;DHT22;32500;50.620;3.400;2023-04-04T11:27:54;14.30;62.60
46754;DHT22;32500;50.620;3.400;2023-04-04T11:30:25;14.30;62.50
46754;DHT22;32500;50.620;3.400;2023-04-04T11:32:55;14.40;62.60
46754;DHT22;32500;50.620;3.400;2023-04-04T11:35:21;14.40;62.50
46754;DHT22;32500;50.620;3.400;2023-04-04T11:40:16;14.50;62.40
46754;DHT22;32500;50.620;3.400;2023-04-04T11:42:42;14.50;62.50
46754;DHT22;32500;50.620;3.400;2023-04-04T11:45:08;14.50;62.30
46754;DHT22;32500;50.620;3.400;2023-04-04T11:47:36;14.60;62.20
46754;DHT22;32500;50.620;3.400;2023-04-04T11:50:06;14.60;62.10
46754;DHT22;32500;50.620;3.400;2023-04-04T11:52:32;14.60;62.10
46754;DHT22;32500;50.620;3.400;2023-04-04T11:55:12;14.60;61.90
46754;DHT22;32500;50.620;3.400;2023-04-04T11:57:40;14.70;61.80
46754;DHT22;32500;50.620;3.400;2023-04-04T12:00:05;14.70;61.40
46754;DHT22;32500;50.620;3.400;2023-04-04T12:02:33;14.70;61.20
46754;DHT22;32500;50.620;3.400;2023-04-04T12:04:59;14.80;61.30
46754;DHT22;32500;50.620;3.400;2023-04-04T12:07:25;14.80;61.20
46754;DHT22;32500;50.620;3.400;2023-04-04T12:09:51;14.80;61.20
46754;DHT22;32500;50.620;3.400;2023-04-04T12:12:16;14.70;61.60
46754;DHT22;32500;50.620;3.400;2023-04-04T12:14:42;14.80;61.70
46754;DHT22;32500;50.620;3.400;2023-04-04T12:17:08;14.70;61.90
46754;DHT22;32500;50.620;3.400;2023-04-04T12:19:37;14.70;62.10
46754;DHT22;32500;50.620;3.400;2023-04-04T12:22:03;14.70;62.30
46754;DHT22;32500;50.620;3.400;2023-04-04T12:24:29;14.80;62.70
46754;DHT22;32500;50.620;3.400;2023-04-04T12:26:54;14.80;62.40
46754;DHT22;32500;50.620;3.400;2023-04-04T12:29:22;14.80;62.80
46754;DHT22;32500;50.620;3.400;2023-04-04T12:31:50;14.80;62.60
46754;DHT22;32500;50.620;3.400;2023-04-04T12:36:42;14.90;63.10
46754;DHT22;32500;50.620;3.400;2023-04-04T12:39:08;14.90;63.10
46754;DHT22;32500;50.620;3.400;2023-04-04T12:41:46;14.90;63.10
46754;DHT22;32500;50.620;3.400;2023-04-04T12:44:24;14.90;63.10
46754;DHT22;32500;50.620;3.400;2023-04-04T12:46:50;14.90;63.00
46754;DHT22;32500;50.620;3.400;2023-04-04T12:49:19;15.00;63.10
46754;DHT22;32500;50.620;3.400;2023-04-04T12:51:45;15.00;63.20
46754;DHT22;32500;50.620;3.400;2023-04-04T12:54:23;15.00;63.20
46754;DHT22;32500;50.620;3.400;2023-04-04T12:56:53;15.00;63.30
46754;DHT22;32500;50.620;3.400;2023-04-04T12:59:20;15.10;63.40
46754;DHT22;32500;50.620;3.400;2023-04-04T13:01:46;15.10;62.90
46754;DHT22;32500;50.620;3.400;2023-04-04T13:04:12;15.10;63.20
46754;DHT22;32500;50.620;3.400;2023-04-04T13:06:44;15.20;63.10
46754;DHT22;32500;50.620;3.400;2023-04-04T13:09:18;15.20;62.70
46754;DHT22;32500;50.620;3.400;2023-04-04T13:12:17;15.30;62.70
46754;DHT22;32500;50.620;3.400;2023-04-04T13:17:20;15.30;62.30
46754;DHT22;32500;50.620;3.400;2023-04-04T13:19:46;15.40;62.30
46754;DHT22;32500;50.620;3.400;2023-04-04T13:22:11;15.40;62.10
46754;DHT22;32500;50.620;3.400;2023-04-04T13:24:37;15.40;62.20
46754;DHT22;32500;50.620;3.400;2023-04-04T13:27:03;15.50;62.10
46754;DHT22;32500;50.620;3.400;2023-04-04T13:29:28;15.50;62.10
46754;DHT22;32500;50.620;3.400;2023-04-04T13:31:54;15.50;61.90
46754;DHT22;32500;50.620;3.400;2023-04-04T13:34:20;15.50;62.10
46754;DHT22;32500;50.620;3.400;2023-04-04T13:36:46;15.60;62.30
46754;DHT22;32500;50.620;3.400;2023-04-04T13:39:11;15.60;62.30
46754;DHT22;32500;50.620;3.400;2023-04-04T13:41:37;15.60;62.50
46754;DHT22;32500;50.620;3.400;2023-04-04T13:44:02;15.60;62.60
46754;DHT22;32500;50.620;3.400;2023-04-04T13:46:28;15.70;63.60
46754;DHT22;32500;50.620;3.400;2023-04-04T13:48:53;15.70;64.10
46754;DHT22;32500;50.620;3.400;2023-04-04T13:51:19;15.70;63.70
46754;DHT22;32500;50.620;3.400;2023-04-04T13:53:44;15.70;63.30
46754;DHT22;32500;50.620;3.400;2023-04-04T13:56:10;15.70;62.80
46754;DHT22;32500;50.620;3.400;2023-04-04T13:58:35;15.60;63.20
46754;DHT22;32500;50.620;3.400;2023-04-04T14:01:01;15.60;63.10
46754;DHT22;32500;50.620;3.400;2023-04-04T14:03:29;15.60;63.20
46754;DHT22;32500;50.620;3.400;2023-04-04T14:05:54;15.60;63.40
46754;DHT22;32500;50.620;3.400;2023-04-04T14:08:20;15.60;63.20
46754;DHT22;32500;50.620;3.400;2023-04-04T14:10:45;15.60;63.20
46754;DHT22;32500;50.620;3.400;2023-04-04T14:13:11;15.60;63.30
46754;DHT22;32500;50.620;3.400;2023-04-04T14:15:36;15.60;63.40
46754;DHT22;32500;50.620;3.400;2023-04-04T14:18:03;15.60;63.00
46754;DHT22;32500;50.620;3.400;2023-04-04T14:20:29;15.60;63.40
46754;DHT22;32500;50.620;3.400;2023-04-04T14:22:54;15.60;63.30
46754;DHT22;32500;50.620;3.400;2023-04-04T14:25:20;15.70;63.50
46754;DHT22;32500;50.620;3.400;2023-04-04T14:27:46;15.70;63.40
46754;DHT22;32500;50.620;3.400;2023-04-04T14:30:12;15.70;63.30
46754;DHT22;32500;50.620;3.400;2023-04-04T14:32:37;15.90;62.80
46754;DHT22;32500;50.620;3.400;2023-04-04T14:35:03;15.90;61.60
46754;DHT22;32500;50.620;3.400;2023-04-04T14:37:28;15.70;60.10
46754;DHT22;32500;50.620;3.400;2023-04-04T14:39:54;15.60;59.60
46754;DHT22;32500;50.620;3.400;2023-04-04T14:42:20;15.60;59.00
46754;DHT22;32500;50.620;3.400;2023-04-04T14:44:45;15.60;59.10
46754;DHT22;32500;50.620;3.400;2023-04-04T14:47:12;15.70;59.40
46754;DHT22;32500;50.620;3.400;2023-04-04T14:49:38;15.70;59.70
46754;DHT22;32500;50.620;3.400;2023-04-04T14:52:03;15.70;59.90
46754;DHT22;32500;50.620;3.400;2023-04-04T14:54:29;15.70;60.10
46754;DHT22;32500;50.620;3.400;2023-04-04T14:56:55;15.70;60.00
46754;DHT22;32500;50.620;3.400;2023-04-04T14:59:20;15.70;60.30
46754;DHT22;32500;50.620;3.400;2023-04-04T15:01:46;15.70;60.20
46754;DHT22;32500;50.620;3.400;2023-04-04T15:04:11;15.70;60.00
46754;DHT22;32500;50.620;3.400;2023-04-04T15:06:37;15.70;60.00
46754;DHT22;32500;50.620;3.400;2023-04-04T15:09:03;15.80;60.30
46754;DHT22;32500;50.620;3.400;2023-04-04T15:11:30;15.70;60.30
46754;DHT22;32500;50.620;3.400;2023-04-04T15:13:55;15.80;60.30
46754;DHT22;32500;50.620;3.400;2023-04-04T15:16:21;15.80;60.20
46754;DHT22;32500;50.620;3.400;2023-04-04T15:18:49;15.70;60.20
46754;DHT22;32500;50.620;3.400;2023-04-04T15:21:15;15.80;60.00
46754;DHT22;32500;50.620;3.400;2023-04-04T15:26:16;15.70;59.80
46754;DHT22;32500;50.620;3.400;2023-04-04T15:28:42;15.80;59.80
46754;DHT22;32500;50.620;3.400;2023-04-04T15:31:07;15.80;59.70
46754;DHT22;32500;50.620;3.400;2023-04-04T15:33:33;15.80;59.70
46754;DHT22;32500;50.620;3.400;2023-04-04T15:35:59;15.80;59.90
46754;DHT22;32500;50.620;3.400;2023-04-04T15:38:24;15.80;59.90
46754;DHT22;32500;50.620;3.400;2023-04-04T15:40:50;15.80;59.80
46754;DHT22;32500;50.620;3.400;2023-04-04T15:43:16;15.80;59.90
46754;DHT22;32500;50.620;3.400;2023-04-04T15:45:41;15.80;59.90
46754;DHT22;32500;50.620;3.400;2023-04-04T15:48:07;15.80;59.90